createdAt,value
2023-03-02T00:01:10.777Z,11.77
2023-03-02T00:03:38.831Z,11.20
2023-03-02T00:06:06.249Z,12.38
2023-03-02T00:08:33.716Z,12.20
2023-03-02T00:11:01.427Z,10.77
2023-03-02T00:13:31.890Z,12.37
2023-03-02T00:15:59.313Z,12.10
2023-03-02T00:18:26.573Z,12.35
2023-03-02T00:20:53.962Z,12.98
2023-03-02T00:23:21.299Z,12.15
2023-03-02T00:25:48.770Z,12.50
2023-03-02T00:28:16.258Z,12.55
2023-03-02T00:30:43.610Z,12.23
2023-03-02T00:33:10.869Z,11.93
2023-03-02T00:35:39.341Z,12.88
2023-03-02T00:38:07.431Z,11.23
2023-03-02T00:40:35.647Z,11.50
2023-03-02T00:43:03.709Z,10.75
2023-03-02T00:45:31.078Z,11.50
2023-03-02T00:47:58.883Z,11.27
2023-03-02T00:50:26.260Z,11.00
2023-03-02T00:52:53.556Z,10.82
2023-03-02T00:55:20.904Z,11.88
2023-03-02T00:57:55.135Z,11.75
2023-03-02T01:00:28.675Z,12.10
2023-03-02T01:02:59.494Z,11.80
2023-03-02T01:05:27.056Z,11.20
2023-03-02T01:07:54.369Z,12.43
2023-03-02T01:10:21.798Z,10.80
2023-03-02T01:12:49.078Z,11.77
2023-03-02T01:15:16.392Z,12.17
2023-03-02T01:17:44.170Z,11.48
2023-03-02T01:20:12.147Z,11.90
2023-03-02T01:22:39.384Z,11.73
2023-03-02T01:25:06.943Z,12.27
2023-03-02T01:27:34.258Z,11.30
2023-03-02T01:30:01.653Z,11.73
2023-03-02T01:32:30.975Z,12.32
2023-03-02T01:34:58.300Z,11.80
2023-03-02T01:37:25.536Z,12.05
2023-03-02T01:39:52.935Z,10.33
2023-03-02T01:42:20.229Z,11.68
2023-03-02T01:44:52.442Z,12.18
2023-03-02T01:47:36.741Z,12.68
2023-03-02T01:50:20.052Z,11.13
2023-03-02T01:52:47.891Z,11.93
2023-03-02T01:55:17.580Z,11.30
2023-03-02T01:57:46.671Z,12.90
2023-03-02T02:00:22.518Z,13.00
2023-03-02T02:02:49.865Z,13.35
2023-03-02T02:05:24.688Z,12.93
2023-03-02T02:07:52.504Z,12.90
2023-03-02T02:10:19.853Z,13.25
2023-03-02T02:12:47.250Z,13.02
2023-03-02T02:15:14.520Z,13.15
2023-03-02T02:17:41.860Z,12.73
2023-03-02T02:20:31.204Z,13.68
2023-03-02T02:23:01.592Z,13.60
2023-03-02T02:25:44.147Z,13.18
2023-03-02T02:28:14.629Z,12.60
2023-03-02T02:30:42.169Z,13.00
2023-03-02T02:33:13.860Z,13.10
2023-03-02T02:35:41.259Z,13.88
2023-03-02T02:38:08.674Z,13.38
2023-03-02T02:40:43.592Z,13.05
2023-03-02T02:43:14.346Z,12.30
2023-03-02T02:45:41.785Z,13.77
2023-03-02T02:48:12.117Z,14.05
2023-03-02T02:50:39.453Z,12.38
2023-03-02T02:53:13.367Z,13.98
2023-03-02T02:55:40.769Z,12.67
2023-03-02T02:58:34.619Z,13.30
2023-03-02T03:01:02.267Z,12.90
2023-03-02T03:03:34.743Z,12.80
2023-03-02T03:06:07.792Z,13.38
2023-03-02T03:08:41.329Z,13.37
2023-03-02T03:11:10.835Z,13.07
2023-03-02T03:13:38.936Z,13.18
2023-03-02T03:16:06.818Z,13.05
2023-03-02T03:18:34.087Z,13.75
2023-03-02T03:21:04.731Z,13.63
2023-03-02T03:23:32.108Z,13.77
2023-03-02T03:25:59.457Z,11.85
2023-03-02T03:28:27.866Z,12.88
2023-03-02T03:30:56.398Z,13.10
2023-03-02T03:33:24.012Z,13.13
2023-03-02T03:35:51.361Z,12.60
2023-03-02T03:38:20.169Z,13.82
2023-03-02T03:40:47.532Z,12.45
2023-03-02T03:43:15.302Z,13.70
2023-03-02T03:45:49.123Z,13.50
2023-03-02T03:48:16.552Z,13.68
2023-03-02T03:50:44.623Z,12.73
2023-03-02T03:53:12.086Z,13.32
2023-03-02T03:55:39.456Z,13.50
2023-03-02T03:58:06.991Z,13.37
2023-03-02T04:00:35.067Z,13.05
2023-03-02T04:03:08.207Z,14.00
2023-03-02T04:05:35.729Z,13.25
2023-03-02T04:08:04.267Z,14.00
2023-03-02T04:10:32.467Z,13.47
2023-03-02T04:12:59.763Z,13.63
2023-03-02T04:15:27.591Z,14.07
2023-03-02T04:17:55.969Z,13.98
2023-03-02T04:20:25.023Z,13.77
2023-03-02T04:22:55.038Z,13.53
2023-03-02T04:25:23.590Z,14.43
2023-03-02T04:27:54.198Z,14.63
2023-03-02T04:30:24.892Z,13.43
2023-03-02T04:32:52.526Z,15.00
2023-03-02T04:35:20.609Z,13.93
2023-03-02T04:37:48.530Z,14.02
2023-03-02T04:40:16.124Z,14.27
2023-03-02T04:42:44.810Z,13.90
2023-03-02T04:45:12.540Z,15.43
2023-03-02T04:47:40.163Z,14.50
2023-03-02T04:50:08.114Z,13.90
2023-03-02T04:52:35.391Z,15.15
2023-03-02T04:55:02.683Z,14.73
2023-03-02T04:57:30.065Z,14.52
2023-03-02T04:59:57.286Z,15.17
2023-03-02T05:02:24.960Z,13.68
2023-03-02T05:04:52.347Z,17.60
2023-03-02T05:07:19.755Z,15.88
2023-03-02T05:09:47.059Z,15.93
2023-03-02T05:12:14.399Z,16.73
2023-03-02T05:14:41.739Z,18.10
2023-03-02T05:17:09.319Z,17.83
2023-03-02T05:19:36.609Z,18.48
2023-03-02T05:22:04.146Z,19.88
2023-03-02T05:24:31.415Z,18.83
2023-03-02T05:26:58.776Z,19.73
2023-03-02T05:29:26.055Z,20.27
2023-03-02T05:31:53.523Z,19.25
2023-03-02T05:34:20.923Z,19.67
2023-03-02T05:36:48.274Z,19.60
2023-03-02T05:39:16.387Z,19.30
2023-03-02T05:41:43.740Z,19.60
2023-03-02T05:44:12.692Z,19.38
2023-03-02T05:46:40.248Z,19.15
2023-03-02T05:49:07.634Z,19.23
2023-03-02T05:51:35.087Z,18.73
2023-03-02T05:54:02.686Z,18.92
2023-03-02T05:56:30.520Z,19.30
2023-03-02T05:58:57.989Z,19.25
2023-03-02T06:01:25.549Z,17.93
2023-03-02T06:03:52.906Z,18.90
2023-03-02T06:06:20.429Z,18.92
2023-03-02T06:08:47.830Z,20.08
2023-03-02T06:11:15.342Z,20.23
2023-03-02T06:13:42.738Z,18.80
2023-03-02T06:16:10.243Z,18.73
2023-03-02T06:18:39.730Z,19.92
2023-03-02T06:21:08.480Z,18.45
2023-03-02T06:23:35.867Z,18.75
2023-03-02T06:26:08.846Z,19.50
2023-03-02T06:28:49.714Z,17.95
2023-03-02T06:31:18.749Z,18.95
2023-03-02T06:33:46.093Z,20.60
2023-03-02T06:36:15.283Z,19.33
2023-03-02T06:38:42.954Z,20.07
2023-03-02T06:41:10.570Z,18.90
2023-03-02T06:43:38.010Z,19.50
2023-03-02T06:46:05.998Z,18.85
2023-03-02T06:48:33.464Z,20.42
2023-03-02T06:51:00.835Z,19.07
2023-03-02T06:53:28.371Z,19.47
2023-03-02T06:55:55.959Z,21.42
2023-03-02T06:58:23.320Z,21.48
2023-03-02T07:00:50.756Z,20.27
2023-03-02T07:03:18.595Z,21.15
2023-03-02T07:05:46.466Z,20.13
2023-03-02T07:08:17.309Z,19.75
2023-03-02T07:10:46.043Z,20.13
2023-03-02T07:13:16.182Z,20.35
2023-03-02T07:15:43.937Z,21.42
2023-03-02T07:18:11.553Z,21.33
2023-03-02T07:20:40.259Z,21.23
2023-03-02T07:23:08.677Z,21.90
2023-03-02T07:25:38.670Z,23.15
2023-03-02T07:28:06.170Z,22.63
2023-03-02T07:30:33.600Z,20.77
2023-03-02T07:33:01.084Z,22.30
2023-03-02T07:35:28.586Z,23.70
2023-03-02T07:37:56.307Z,22.02
2023-03-02T07:40:24.082Z,22.42
2023-03-02T07:42:51.662Z,21.63
2023-03-02T07:45:20.910Z,23.33
2023-03-02T07:47:48.321Z,20.90
2023-03-02T07:50:16.319Z,20.73
2023-03-02T07:52:44.367Z,20.80
2023-03-02T07:55:12.069Z,20.70
2023-03-02T07:57:39.775Z,20.33
2023-03-02T08:00:08.267Z,22.88
2023-03-02T08:02:41.854Z,22.35
2023-03-02T08:05:10.074Z,21.67
2023-03-02T08:07:37.445Z,20.38
2023-03-02T08:10:05.260Z,19.93
2023-03-02T08:12:33.575Z,20.35
2023-03-02T08:15:03.058Z,19.80
2023-03-02T08:17:48.769Z,18.58
2023-03-02T08:20:16.767Z,19.42
2023-03-02T08:22:44.172Z,18.03
2023-03-02T08:25:11.460Z,18.50
2023-03-02T08:27:40.455Z,18.48
2023-03-02T08:30:08.364Z,15.43
2023-03-02T08:32:35.829Z,15.40
2023-03-02T08:35:04.212Z,14.50
2023-03-02T08:37:31.796Z,14.15
2023-03-02T08:39:59.276Z,10.93
2023-03-02T08:42:26.986Z,9.85
2023-03-02T08:44:54.480Z,11.80
2023-03-02T08:47:22.268Z,10.40
2023-03-02T08:49:50.694Z,12.13
2023-03-02T08:52:18.168Z,11.60
2023-03-02T08:54:45.724Z,12.65
2023-03-02T08:57:13.210Z,12.48
2023-03-02T08:59:44.548Z,13.63
2023-03-02T09:02:12.697Z,12.88
2023-03-02T09:04:40.344Z,14.30
2023-03-02T09:07:18.308Z,12.80
2023-03-02T09:09:46.119Z,13.90
2023-03-02T09:12:14.636Z,12.50
2023-03-02T09:14:42.270Z,11.25
2023-03-02T09:17:17.475Z,11.63
2023-03-02T09:19:58.497Z,12.07
2023-03-02T09:22:26.424Z,11.50
2023-03-02T09:24:55.086Z,10.33
2023-03-02T09:27:29.237Z,11.27
2023-03-02T09:29:57.652Z,10.40
2023-03-02T09:32:25.565Z,11.43
2023-03-02T09:34:53.276Z,10.15
2023-03-02T09:37:20.784Z,10.37
2023-03-02T09:39:48.546Z,10.20
2023-03-02T09:42:44.105Z,10.45
2023-03-02T09:45:35.948Z,9.82
2023-03-02T09:48:36.486Z,10.35
2023-03-02T09:51:22.872Z,12.60
2023-03-02T09:53:58.540Z,12.90
2023-03-02T09:56:26.376Z,11.73
2023-03-02T09:59:03.426Z,12.55
2023-03-02T10:01:41.248Z,11.95
2023-03-02T10:04:16.328Z,11.70
2023-03-02T10:06:44.005Z,9.90
2023-03-02T10:09:11.650Z,11.43
2023-03-02T10:11:49.964Z,11.63
2023-03-02T10:14:30.401Z,11.13
2023-03-02T10:17:10.307Z,11.50
2023-03-02T10:19:42.417Z,11.68
2023-03-02T10:22:12.880Z,10.57
2023-03-02T10:24:50.581Z,10.20
2023-03-02T10:27:31.435Z,11.27
2023-03-02T10:30:17.387Z,11.55
2023-03-02T10:32:46.852Z,11.77
2023-03-02T10:35:21.441Z,11.93
2023-03-02T10:37:51.062Z,12.23
2023-03-02T10:40:46.377Z,11.07
2023-03-02T10:43:20.867Z,11.32
2023-03-02T10:46:01.294Z,13.05
2023-03-02T10:48:29.126Z,12.53
2023-03-02T10:50:58.868Z,11.80
2023-03-02T10:53:27.335Z,12.80
2023-03-02T10:55:55.181Z,12.10
2023-03-02T10:58:30.414Z,13.15
2023-03-02T11:01:00.002Z,13.53
2023-03-02T11:03:28.086Z,13.07
2023-03-02T11:05:55.869Z,13.10
2023-03-02T11:08:25.606Z,12.77
2023-03-02T11:10:56.885Z,11.40
2023-03-02T11:13:31.409Z,12.70
2023-03-02T11:16:04.597Z,12.98
2023-03-02T11:18:46.035Z,11.73
2023-03-02T11:21:19.999Z,11.55
2023-03-02T11:24:10.501Z,10.68
2023-03-02T11:26:53.002Z,11.50
2023-03-02T11:29:31.576Z,11.82
2023-03-02T11:32:17.722Z,12.18
2023-03-02T11:35:00.848Z,10.73
2023-03-02T11:37:47.393Z,12.45
2023-03-02T11:40:56.646Z,11.43
2023-03-02T11:43:24.486Z,10.63
2023-03-02T11:46:10.894Z,9.82
2023-03-02T11:48:47.858Z,12.13
2023-03-02T11:51:40.549Z,11.55
2023-03-02T11:54:47.228Z,11.37
2023-03-02T11:58:14.898Z,11.27
2023-03-02T12:00:43.286Z,11.85
2023-03-02T12:03:16.820Z,11.30
2023-03-02T12:05:46.032Z,11.43
2023-03-02T12:08:19.923Z,11.20
2023-03-02T12:11:25.872Z,12.02
2023-03-02T12:14:04.303Z,12.50
2023-03-02T12:16:36.962Z,11.35
2023-03-02T12:19:16.990Z,11.30
2023-03-02T12:21:57.419Z,11.97
2023-03-02T12:24:29.112Z,11.90
2023-03-02T12:27:25.972Z,12.48
2023-03-02T12:30:10.649Z,12.70
2023-03-02T12:32:38.252Z,12.98
2023-03-02T12:35:08.930Z,12.17
2023-03-02T12:37:36.613Z,12.48
2023-03-02T12:40:31.908Z,11.65
2023-03-02T12:43:16.441Z,11.75
2023-03-02T12:46:03.481Z,11.80
2023-03-02T12:48:40.225Z,12.00
2023-03-02T12:51:18.731Z,11.45
2023-03-02T12:53:47.512Z,11.85
2023-03-02T12:56:37.413Z,11.43
2023-03-02T12:59:05.566Z,12.23
2023-03-02T13:01:33.650Z,12.23
2023-03-02T13:04:01.104Z,10.48
2023-03-02T13:06:31.742Z,12.80
2023-03-02T13:09:00.712Z,11.80
2023-03-02T13:11:33.254Z,11.90
2023-03-02T13:14:01.281Z,10.97
2023-03-02T13:16:33.872Z,10.82
2023-03-02T13:19:03.090Z,11.10
2023-03-02T13:21:33.024Z,10.05
2023-03-02T13:24:00.655Z,9.90
2023-03-02T13:26:35.827Z,9.97
2023-03-02T13:29:19.991Z,9.43
2023-03-02T13:31:47.650Z,10.48
2023-03-02T13:34:28.683Z,9.82
2023-03-02T13:36:56.062Z,10.00
2023-03-02T13:39:27.198Z,10.70
2023-03-02T13:41:56.482Z,11.25
2023-03-02T13:44:28.988Z,11.05
2023-03-02T13:46:56.490Z,11.23
2023-03-02T13:49:30.546Z,10.75
2023-03-02T13:52:08.209Z,10.13
2023-03-02T13:54:36.486Z,10.77
2023-03-02T13:57:04.161Z,10.40
2023-03-02T13:59:35.032Z,11.43
2023-03-02T14:02:02.514Z,11.32
2023-03-02T14:04:29.922Z,10.90
2023-03-02T14:06:57.566Z,10.93
2023-03-02T14:09:27.273Z,10.55
2023-03-02T14:11:55.337Z,10.68
2023-03-02T14:14:24.573Z,11.07
2023-03-02T14:16:54.341Z,11.70
2023-03-02T14:19:21.681Z,9.95
2023-03-02T14:21:49.008Z,9.57
2023-03-02T14:24:16.517Z,9.43
2023-03-02T14:26:45.064Z,10.13
2023-03-02T14:29:31.761Z,9.90
2023-03-02T14:32:03.821Z,10.75
2023-03-02T14:34:31.257Z,10.90
2023-03-02T14:36:59.952Z,10.40
2023-03-02T14:39:37.402Z,10.60
2023-03-02T14:42:05.712Z,10.03
2023-03-02T14:44:33.139Z,10.55
2023-03-02T14:47:00.533Z,10.88
2023-03-02T14:49:28.822Z,10.90
2023-03-02T14:52:02.222Z,11.30
2023-03-02T14:54:51.800Z,10.20
2023-03-02T14:57:21.127Z,9.90
2023-03-02T14:59:48.948Z,10.10
2023-03-02T15:02:25.331Z,9.45
2023-03-02T15:04:56.410Z,10.18
2023-03-02T15:07:25.032Z,10.10
2023-03-02T15:09:52.319Z,9.90
2023-03-02T15:12:19.678Z,10.75
2023-03-02T15:14:47.057Z,9.38
2023-03-02T15:17:14.461Z,9.98
2023-03-02T15:19:41.869Z,9.87
2023-03-02T15:22:09.229Z,9.73
2023-03-02T15:24:36.578Z,9.55
2023-03-02T15:27:03.939Z,8.65
2023-03-02T15:29:31.366Z,9.95
2023-03-02T15:31:58.825Z,9.70
2023-03-02T15:34:26.224Z,9.20
2023-03-02T15:36:53.532Z,8.23
2023-03-02T15:39:20.883Z,7.65
2023-03-02T15:41:49.501Z,8.68
2023-03-02T15:44:22.086Z,8.83
2023-03-02T15:46:50.553Z,7.60
2023-03-02T15:49:22.944Z,8.20
2023-03-02T15:51:54.715Z,7.40
2023-03-02T15:54:22.120Z,8.38
2023-03-02T15:56:53.410Z,8.20
2023-03-02T15:59:21.504Z,9.10
2023-03-02T16:01:48.997Z,8.77
2023-03-02T16:04:16.414Z,8.52
2023-03-02T16:06:43.916Z,8.57
2023-03-02T16:09:11.275Z,8.73
2023-03-02T16:11:38.581Z,9.25
2023-03-02T16:14:06.000Z,8.80
2023-03-02T16:16:33.350Z,9.10
2023-03-02T16:19:01.344Z,9.38
2023-03-02T16:21:28.910Z,9.57
2023-03-02T16:24:03.221Z,9.70
2023-03-02T16:26:34.817Z,10.27
2023-03-02T16:29:02.519Z,12.25
2023-03-02T16:31:32.469Z,14.23
2023-03-02T16:33:59.938Z,12.93
2023-03-02T16:36:27.308Z,13.10
2023-03-02T16:38:54.620Z,13.52
2023-03-02T16:41:22.394Z,13.05
2023-03-02T16:43:51.605Z,14.70
2023-03-02T16:46:19.194Z,15.20
2023-03-02T16:48:46.742Z,19.30
2023-03-02T16:51:14.197Z,19.08
2023-03-02T16:53:41.491Z,16.67
2023-03-02T16:56:09.681Z,16.80
2023-03-02T16:58:38.488Z,16.27
2023-03-02T17:01:06.763Z,18.60
2023-03-02T17:03:34.459Z,18.77
2023-03-02T17:06:02.027Z,17.35
2023-03-02T17:08:29.331Z,17.10
2023-03-02T17:10:56.716Z,16.07
2023-03-02T17:13:24.252Z,15.25
2023-03-02T17:15:51.740Z,17.23
2023-03-02T17:18:19.314Z,14.63
2023-03-02T17:20:46.752Z,14.25
2023-03-02T17:23:16.371Z,16.10
2023-03-02T17:25:43.788Z,15.52
2023-03-02T17:28:12.689Z,15.82
2023-03-02T17:30:40.614Z,15.00
2023-03-02T17:33:08.376Z,16.48
2023-03-02T17:35:36.106Z,17.97
2023-03-02T17:38:03.789Z,22.42
2023-03-02T17:40:31.555Z,20.60
2023-03-02T17:42:58.918Z,17.23
2023-03-02T17:45:27.148Z,15.48
2023-03-02T17:47:55.184Z,14.90
2023-03-02T17:50:22.742Z,13.57
2023-03-02T17:52:50.230Z,12.82
2023-03-02T17:55:17.588Z,13.75
2023-03-02T17:57:45.038Z,13.00
2023-03-02T18:00:15.607Z,13.03
2023-03-02T18:02:42.920Z,13.50
2023-03-02T18:05:10.568Z,14.48
2023-03-02T18:07:38.289Z,13.75
2023-03-02T18:10:06.419Z,13.50
2023-03-02T18:12:34.821Z,13.87
2023-03-02T18:15:02.236Z,14.15
2023-03-02T18:17:29.660Z,15.00
2023-03-02T18:19:57.028Z,13.52
2023-03-02T18:22:24.411Z,15.02
2023-03-02T18:24:53.057Z,17.93
2023-03-02T18:27:20.478Z,16.48
2023-03-02T18:29:47.888Z,15.82
2023-03-02T18:32:15.348Z,14.48
2023-03-02T18:34:42.686Z,13.82
2023-03-02T18:37:10.045Z,13.17
2023-03-02T18:39:40.241Z,13.45
2023-03-02T18:42:07.684Z,12.48
2023-03-02T18:44:35.047Z,11.77
2023-03-02T18:47:02.544Z,12.82
2023-03-02T18:49:30.199Z,12.67
2023-03-02T18:51:57.573Z,13.30
2023-03-02T18:54:24.963Z,14.57
2023-03-02T18:56:52.367Z,12.93
2023-03-02T18:59:19.679Z,13.55
2023-03-02T19:01:47.376Z,13.00
2023-03-02T19:04:14.879Z,13.02
2023-03-02T19:06:42.954Z,11.57
2023-03-02T19:09:10.533Z,12.00
2023-03-02T19:11:37.895Z,12.95
2023-03-02T19:14:05.141Z,13.13
2023-03-02T19:16:32.562Z,12.60
2023-03-02T19:18:59.954Z,14.60
2023-03-02T19:21:27.347Z,14.10
2023-03-02T19:23:54.876Z,14.52
2023-03-02T19:26:22.247Z,13.13
2023-03-02T19:28:49.499Z,14.93
2023-03-02T19:31:16.992Z,12.60
2023-03-02T19:33:45.447Z,11.75
2023-03-02T19:36:12.985Z,11.88
2023-03-02T19:38:44.551Z,11.80
2023-03-02T19:41:14.176Z,10.77
2023-03-02T19:43:42.826Z,10.27
2023-03-02T19:46:11.008Z,11.60
2023-03-02T19:48:38.814Z,11.45
2023-03-02T19:51:06.522Z,11.87
2023-03-02T19:53:34.464Z,11.70
2023-03-02T19:56:07.293Z,15.43
2023-03-02T19:58:35.706Z,13.60
2023-03-02T20:01:04.202Z,13.57
2023-03-02T20:03:31.649Z,15.10
2023-03-02T20:05:59.745Z,14.15
2023-03-02T20:08:27.135Z,15.30
2023-03-02T20:10:54.485Z,12.90
2023-03-02T20:13:22.103Z,12.10
2023-03-02T20:15:49.399Z,12.60
2023-03-02T20:18:18.958Z,11.43
2023-03-02T20:20:47.342Z,10.85
2023-03-02T20:23:15.111Z,11.30
2023-03-02T20:25:42.548Z,12.32
2023-03-02T20:28:12.063Z,11.37
2023-03-02T20:30:43.036Z,13.10
2023-03-02T20:33:10.460Z,13.40
2023-03-02T20:35:40.988Z,14.20
2023-03-02T20:38:10.337Z,15.02
2023-03-02T20:40:37.633Z,14.17
2023-03-02T20:43:05.497Z,15.23
2023-03-02T20:45:32.876Z,19.50
2023-03-02T20:48:00.280Z,17.13
2023-03-02T20:50:29.062Z,15.90
2023-03-02T20:52:56.651Z,14.87
2023-03-02T20:55:23.918Z,14.73
2023-03-02T20:57:51.308Z,13.30
2023-03-02T21:00:21.476Z,13.43
2023-03-02T21:02:48.903Z,12.77
2023-03-02T21:05:16.661Z,13.47
2023-03-02T21:07:44.457Z,15.50
2023-03-02T21:10:14.615Z,14.73
2023-03-02T21:12:43.084Z,14.90
2023-03-02T21:15:10.975Z,13.80
2023-03-02T21:17:38.471Z,12.30
2023-03-02T21:20:06.301Z,14.05
2023-03-02T21:22:33.882Z,13.73
2023-03-02T21:25:01.317Z,13.80
2023-03-02T21:27:29.153Z,14.38
2023-03-02T21:29:56.581Z,15.13
2023-03-02T21:32:23.984Z,13.85
2023-03-02T21:34:51.322Z,13.40
2023-03-02T21:37:19.534Z,12.05
2023-03-02T21:39:46.780Z,13.82
2023-03-02T21:42:14.146Z,13.90
2023-03-02T21:44:41.396Z,13.60
2023-03-02T21:47:09.309Z,13.38
2023-03-02T21:49:36.593Z,12.80
2023-03-02T21:52:04.214Z,13.35
2023-03-02T21:54:31.509Z,12.03
2023-03-02T21:56:58.968Z,13.38
2023-03-02T21:59:26.240Z,15.82
2023-03-02T22:01:53.666Z,14.80
2023-03-02T22:04:21.057Z,13.55
2023-03-02T22:06:48.430Z,12.77
2023-03-02T22:09:15.720Z,11.20
2023-03-02T22:11:43.091Z,12.43
2023-03-02T22:14:13.330Z,12.45
2023-03-02T22:16:42.239Z,13.50
2023-03-02T22:19:27.039Z,13.03
2023-03-02T22:21:55.478Z,12.98
2023-03-02T22:24:27.894Z,13.27
2023-03-02T22:27:02.208Z,12.77
2023-03-02T22:29:46.363Z,13.23
2023-03-02T22:32:21.122Z,12.43
2023-03-02T22:34:53.306Z,12.35
2023-03-02T22:37:28.009Z,13.35
2023-03-02T22:39:57.098Z,12.77
2023-03-02T22:42:25.815Z,13.57
2023-03-02T22:45:14.872Z,12.40
2023-03-02T22:47:42.897Z,12.15
2023-03-02T22:50:12.899Z,13.07
2023-03-02T22:52:43.168Z,13.65
2023-03-02T22:55:29.275Z,14.70
2023-03-02T22:57:56.781Z,13.03
2023-03-02T23:00:48.386Z,12.30
2023-03-02T23:03:19.798Z,13.57
2023-03-02T23:05:49.324Z,10.90
2023-03-02T23:08:30.178Z,11.45
2023-03-02T23:10:58.634Z,10.80
2023-03-02T23:13:31.449Z,11.32
2023-03-02T23:15:58.826Z,11.32
2023-03-02T23:18:30.410Z,11.95
2023-03-02T23:20:57.726Z,11.57
2023-03-02T23:23:25.069Z,10.17
2023-03-02T23:25:52.449Z,10.75
2023-03-02T23:28:19.746Z,10.82
2023-03-02T23:30:47.719Z,10.73
2023-03-02T23:33:14.971Z,12.20
2023-03-02T23:35:42.458Z,11.17
2023-03-02T23:38:09.766Z,12.18
2023-03-02T23:40:37.169Z,12.00
2023-03-02T23:43:04.424Z,11.20
2023-03-02T23:45:31.867Z,11.27
2023-03-02T23:47:59.228Z,11.20
2023-03-02T23:50:26.636Z,11.07
2023-03-02T23:52:54.387Z,11.60
2023-03-02T23:55:21.732Z,10.30
2023-03-02T23:57:48.994Z,11.20
